sensor_id;sensor_type;location;lat;lon;timestamp;pressure;altitude;pressure_sealevel;temperature;humidity
21658;BME280;10990;48.174;9.782;2023-03-01T00:02:14;95123.56;;;-1.44;100.00
21658;BME280;10990;48.174;9.782;2023-03-01T00:04:42;95120.88;;;-1.43;100.00
21658;BME280;10990;48.174;9.782;2023-03-01T00:07:09;95114.94;;;-1.45;100.00
21658;BME280;10990;48.174;9.782;2023-03-01T00:09:36;95104.38;;;-1.42;100.00
21658;BME280;10990;48.174;9.782;2023-03-01T00:12:04;95095.50;;;-1.38;100.00
21658;BME280;10990;48.174;9.782;2023-03-01T00:14:31;95096.41;;;-1.39;100.00
21658;BME280;10990;48.174;9.782;2023-03-01T00:16:59;95093.25;;;-1.44;100.00
21658;BME280;10990;48.174;9.782;2023-03-01T00:19:25;95081.34;;;-1.46;100.00
21658;BME280;10990;48.174;9.782;2023-03-01T00:21:53;95082.16;;;-1.46;100.00
21658;BME280;10990;48.174;9.782;2023-03-01T00:24:20;95079.00;;;-1.51;100.00
21658;BME280;10990;48.174;9.782;2023-03-01T00:26:47;95060.84;;;-1.51;100.00
21658;BME280;10990;48.174;9.782;2023-03-01T00:29:13;95065.28;;;-1.53;100.00
21658;BME280;10990;48.174;9.782;2023-03-01T00:31:40;95053.25;;;-1.54;100.00
21658;BME280;10990;48.174;9.782;2023-03-01T00:34:07;95042.78;;;-1.52;100.00
21658;BME280;10990;48.174;9.782;2023-03-01T00:36:36;95048.91;;;-1.53;100.00
21658;BME280;10990;48.174;9.782;2023-03-01T00:39:09;95043.91;;;-1.56;100.00
21658;BME280;10990;48.174;9.782;2023-03-01T00:41:36;95032.53;;;-1.54;100.00
21658;BME280;10990;48.174;9.782;2023-03-01T00:44:03;95023.72;;;-1.51;100.00
21658;BME280;10990;48.174;9.782;2023-03-01T00:46:30;95022.78;;;-1.50;100.00
21658;BME280;10990;48.174;9.782;2023-03-01T00:48:57;95020.84;;;-1.47;100.00
21658;BME280;10990;48.174;9.782;2023-03-01T00:51:27;95007.03;;;-1.47;100.00
21658;BME280;10990;48.174;9.782;2023-03-01T00:53:57;94997.31;;;-1.44;100.00
21658;BME280;10990;48.174;9.782;2023-03-01T00:56:25;94993.16;;;-1.46;100.00
21658;BME280;10990;48.174;9.782;2023-03-01T00:58:52;94996.66;;;-1.47;100.00
21658;BME280;10990;48.174;9.782;2023-03-01T01:01:29;94988.88;;;-1.47;100.00
21658;BME280;10990;48.174;9.782;2023-03-01T01:03:57;94979.63;;;-1.37;100.00
21658;BME280;10990;48.174;9.782;2023-03-01T01:06:26;94979.06;;;-1.42;100.00
21658;BME280;10990;48.174;9.782;2023-03-01T01:08:54;94963.44;;;-1.41;100.00
21658;BME280;10990;48.174;9.782;2023-03-01T01:11:22;94965.34;;;-1.44;100.00
21658;BME280;10990;48.174;9.782;2023-03-01T01:13:52;94959.91;;;-1.40;100.00
21658;BME280;10990;48.174;9.782;2023-03-01T01:16:20;94953.78;;;-1.39;100.00
21658;BME280;10990;48.174;9.782;2023-03-01T01:18:48;94943.50;;;-1.40;100.00
21658;BME280;10990;48.174;9.782;2023-03-01T01:21:17;94942.56;;;-1.39;100.00
21658;BME280;10990;48.174;9.782;2023-03-01T01:23:44;94927.00;;;-1.39;100.00
21658;BME280;10990;48.174;9.782;2023-03-01T01:26:14;94913.66;;;-1.33;100.00
21658;BME280;10990;48.174;9.782;2023-03-01T01:28:41;94903.19;;;-1.31;100.00
21658;BME280;10990;48.174;9.782;2023-03-01T01:31:10;94895.97;;;-1.26;100.00
21658;BME280;10990;48.174;9.782;2023-03-01T01:33:37;94892.81;;;-1.31;100.00
21658;BME280;10990;48.174;9.782;2023-03-01T01:36:05;94886.88;;;-1.33;100.00
21658;BME280;10990;48.174;9.782;2023-03-01T01:38:32;94885.94;;;-1.32;100.00
21658;BME280;10990;48.174;9.782;2023-03-01T01:40:59;94879.84;;;-1.31;100.00
21658;BME280;10990;48.174;9.782;2023-03-01T01:43:28;94871.94;;;-1.30;100.00
21658;BME280;10990;48.174;9.782;2023-03-01T01:45:56;94870.31;;;-1.31;100.00
21658;BME280;10990;48.174;9.782;2023-03-01T01:48:30;94858.78;;;-1.27;100.00
21658;BME280;10990;48.174;9.782;2023-03-01T01:51:07;94862.31;;;-1.28;100.00
21658;BME280;10990;48.174;9.782;2023-03-01T01:53:37;94862.53;;;-1.31;100.00
21658;BME280;10990;48.174;9.782;2023-03-01T01:56:08;94858.91;;;-1.28;100.00
21658;BME280;10990;48.174;9.782;2023-03-01T01:58:41;94860.75;;;-1.30;100.00
21658;BME280;10990;48.174;9.782;2023-03-01T02:01:09;94850.50;;;-1.32;100.00
21658;BME280;10990;48.174;9.782;2023-03-01T02:03:39;94845.94;;;-1.28;100.00
21658;BME280;10990;48.174;9.782;2023-03-01T02:06:13;94840.81;;;-1.30;100.00
21658;BME280;10990;48.174;9.782;2023-03-01T02:08:44;94843.41;;;-1.30;100.00
21658;BME280;10990;48.174;9.782;2023-03-01T02:11:12;94831.94;;;-1.26;100.00
21658;BME280;10990;48.174;9.782;2023-03-01T02:13:41;94828.41;;;-1.25;100.00
21658;BME280;10990;48.174;9.782;2023-03-01T02:16:10;94831.75;;;-1.23;100.00
21658;BME280;10990;48.174;9.782;2023-03-01T02:18:40;94822.19;;;-1.22;100.00
21658;BME280;10990;48.174;9.782;2023-03-01T02:21:20;94826.84;;;-1.27;100.00
21658;BME280;10990;48.174;9.782;2023-03-01T02:23:51;94822.81;;;-1.19;100.00
21658;BME280;10990;48.174;9.782;2023-03-01T02:26:23;94822.31;;;-1.24;100.00
21658;BME280;10990;48.174;9.782;2023-03-01T02:28:59;94819.59;;;-1.22;100.00
21658;BME280;10990;48.174;9.782;2023-03-01T02:31:26;94803.94;;;-1.21;100.00
21658;BME280;10990;48.174;9.782;2023-03-01T02:34:12;94805.59;;;-1.20;100.00
21658;BME280;10990;48.174;9.782;2023-03-01T02:36:43;94800.19;;;-1.17;100.00
21658;BME280;10990;48.174;9.782;2023-03-01T02:39:14;94797.59;;;-1.17;100.00
21658;BME280;10990;48.174;9.782;2023-03-01T02:41:47;94798.63;;;-1.19;100.00
21658;BME280;10990;48.174;9.782;2023-03-01T02:44:16;94800.50;;;-1.21;100.00
21658;BME280;10990;48.174;9.782;2023-03-01T02:46:44;94791.69;;;-1.19;100.00
21658;BME280;10990;48.174;9.782;2023-03-01T02:49:23;94784.84;;;-1.20;100.00
21658;BME280;10990;48.174;9.782;2023-03-01T02:52:05;94783.91;;;-1.19;100.00
21658;BME280;10990;48.174;9.782;2023-03-01T02:54:40;94788.38;;;-1.21;100.00
21658;BME280;10990;48.174;9.782;2023-03-01T02:57:08;94773.63;;;-1.20;100.00
21658;BME280;10990;48.174;9.782;2023-03-01T02:59:38;94775.28;;;-1.19;100.00
21658;BME280;10990;48.174;9.782;2023-03-01T03:02:06;94766.59;;;-1.18;100.00
21658;BME280;10990;48.174;9.782;2023-03-01T03:04:34;94755.34;;;-1.19;100.00
21658;BME280;10990;48.174;9.782;2023-03-01T03:07:01;94766.69;;;-1.20;100.00
21658;BME280;10990;48.174;9.782;2023-03-01T03:09:28;94769.19;;;-1.18;100.00
21658;BME280;10990;48.174;9.782;2023-03-01T03:11:55;94767.63;;;-1.21;100.00
21658;BME280;10990;48.174;9.782;2023-03-01T03:14:22;94764.81;;;-1.18;100.00
21658;BME280;10990;48.174;9.782;2023-03-01T03:16:50;94764.16;;;-1.21;100.00
21658;BME280;10990;48.174;9.782;2023-03-01T03:19:17;94762.84;;;-1.14;100.00
21658;BME280;10990;48.174;9.782;2023-03-01T03:21:45;94762.94;;;-1.16;100.00
21658;BME280;10990;48.174;9.782;2023-03-01T03:24:12;94756.00;;;-1.15;100.00
21658;BME280;10990;48.174;9.782;2023-03-01T03:26:39;94755.16;;;-1.16;100.00
21658;BME280;10990;48.174;9.782;2023-03-01T03:29:06;94756.72;;;-1.13;100.00
21658;BME280;10990;48.174;9.782;2023-03-01T03:31:33;94749.06;;;-1.15;100.00
21658;BME280;10990;48.174;9.782;2023-03-01T03:34:01;94748.84;;;-1.11;100.00
21658;BME280;10990;48.174;9.782;2023-03-01T03:36:28;94747.91;;;-1.10;100.00
21658;BME280;10990;48.174;9.782;2023-03-01T03:38:55;94748.72;;;-1.10;100.00
21658;BME280;10990;48.174;9.782;2023-03-01T03:41:21;94751.97;;;-1.06;100.00
21658;BME280;10990;48.174;9.782;2023-03-01T03:43:48;94752.28;;;-1.11;100.00
21658;BME280;10990;48.174;9.782;2023-03-01T03:46:15;94752.88;;;-1.07;100.00
21658;BME280;10990;48.174;9.782;2023-03-01T03:48:43;94742.63;;;-1.09;100.00
21658;BME280;10990;48.174;9.782;2023-03-01T03:51:12;94743.38;;;-1.07;100.00
21658;BME280;10990;48.174;9.782;2023-03-01T03:53:40;94748.44;;;-1.05;100.00
21658;BME280;10990;48.174;9.782;2023-03-01T03:56:07;94752.06;;;-1.08;100.00
21658;BME280;10990;48.174;9.782;2023-03-01T03:58:34;94744.91;;;-1.04;100.00
21658;BME280;10990;48.174;9.782;2023-03-01T04:01:00;94740.56;;;-1.04;100.00
21658;BME280;10990;48.174;9.782;2023-03-01T04:03:28;94726.44;;;-1.00;100.00
21658;BME280;10990;48.174;9.782;2023-03-01T04:05:57;94731.75;;;-1.01;100.00
21658;BME280;10990;48.174;9.782;2023-03-01T04:08:26;94727.47;;;-1.02;100.00
21658;BME280;10990;48.174;9.782;2023-03-01T04:10:57;94732.44;;;-0.99;100.00
21658;BME280;10990;48.174;9.782;2023-03-01T04:13:25;94733.28;;;-0.99;100.00
21658;BME280;10990;48.174;9.782;2023-03-01T04:15:53;94729.97;;;-1.01;100.00
21658;BME280;10990;48.174;9.782;2023-03-01T04:18:21;94736.59;;;-0.97;100.00
21658;BME280;10990;48.174;9.782;2023-03-01T04:20:49;94736.59;;;-0.97;100.00
21658;BME280;10990;48.174;9.782;2023-03-01T04:23:18;94732.44;;;-0.99;100.00
21658;BME280;10990;48.174;9.782;2023-03-01T04:25:49;94733.28;;;-0.99;100.00
21658;BME280;10990;48.174;9.782;2023-03-01T04:28:19;94728.75;;;-0.95;100.00
21658;BME280;10990;48.174;9.782;2023-03-01T04:30:46;94738.38;;;-0.97;100.00
21658;BME280;10990;48.174;9.782;2023-03-01T04:33:13;94734.84;;;-0.96;100.00
21658;BME280;10990;48.174;9.782;2023-03-01T04:35:40;94731.41;;;-0.97;100.00
21658;BME280;10990;48.174;9.782;2023-03-01T04:38:07;94738.28;;;-0.96;100.00
21658;BME280;10990;48.174;9.782;2023-03-01T04:40:35;94734.22;;;-1.00;100.00
21658;BME280;10990;48.174;9.782;2023-03-01T04:43:03;94728.28;;;-1.02;100.00
21658;BME280;10990;48.174;9.782;2023-03-01T04:45:32;94729.34;;;-0.92;100.00
21658;BME280;10990;48.174;9.782;2023-03-01T04:47:59;94730.78;;;-0.87;100.00
21658;BME280;10990;48.174;9.782;2023-03-01T04:50:26;94734.13;;;-0.85;100.00
21658;BME280;10990;48.174;9.782;2023-03-01T04:52:53;94730.63;;;-0.84;100.00
21658;BME280;10990;48.174;9.782;2023-03-01T04:55:19;94735.91;;;-0.86;100.00
21658;BME280;10990;48.174;9.782;2023-03-01T04:57:46;94736.63;;;-0.84;100.00
21658;BME280;10990;48.174;9.782;2023-03-01T05:00:15;94736.72;;;-0.85;100.00
21658;BME280;10990;48.174;9.782;2023-03-01T05:02:50;94742.31;;;-0.92;100.00
21658;BME280;10990;48.174;9.782;2023-03-01T05:05:20;94736.72;;;-0.85;100.00
21658;BME280;10990;48.174;9.782;2023-03-01T05:07:52;94743.47;;;-0.83;100.00
21658;BME280;10990;48.174;9.782;2023-03-01T05:10:19;94745.53;;;-0.88;100.00
21658;BME280;10990;48.174;9.782;2023-03-01T05:12:46;94741.69;;;-0.82;100.00
21658;BME280;10990;48.174;9.782;2023-03-01T05:15:14;94739.44;;;-0.87;100.00
21658;BME280;10990;48.174;9.782;2023-03-01T05:17:41;94737.34;;;-0.82;100.00
21658;BME280;10990;48.174;9.782;2023-03-01T05:20:09;94735.06;;;-0.86;100.00
21658;BME280;10990;48.174;9.782;2023-03-01T05:22:36;94733.09;;;-0.83;100.00
21658;BME280;10990;48.174;9.782;2023-03-01T05:25:04;94728.94;;;-0.85;100.00
21658;BME280;10990;48.174;9.782;2023-03-01T05:27:30;94734.25;;;-0.87;100.00
21658;BME280;10990;48.174;9.782;2023-03-01T05:29:57;94727.38;;;-0.88;100.00
21658;BME280;10990;48.174;9.782;2023-03-01T05:32:25;94722.31;;;-0.89;100.00
21658;BME280;10990;48.174;9.782;2023-03-01T05:34:52;94721.56;;;-0.92;100.00
21658;BME280;10990;48.174;9.782;2023-03-01T05:37:20;94716.06;;;-0.87;100.00
21658;BME280;10990;48.174;9.782;2023-03-01T05:39:47;94726.75;;;-0.92;100.00
21658;BME280;10990;48.174;9.782;2023-03-01T05:42:15;94722.19;;;-0.88;100.00
21658;BME280;10990;48.174;9.782;2023-03-01T05:44:42;94720.63;;;-0.91;100.00
21658;BME280;10990;48.174;9.782;2023-03-01T05:47:09;94707.34;;;-0.86;100.00
21658;BME280;10990;48.174;9.782;2023-03-01T05:49:37;94722.19;;;-0.88;100.00
21658;BME280;10990;48.174;9.782;2023-03-01T05:52:04;94714.31;;;-0.86;100.00
21658;BME280;10990;48.174;9.782;2023-03-01T05:54:30;94717.00;;;-0.88;100.00
21658;BME280;10990;48.174;9.782;2023-03-01T05:56:58;94713.47;;;-0.87;100.00
21658;BME280;10990;48.174;9.782;2023-03-01T05:59:25;94710.56;;;-0.82;100.00
21658;BME280;10990;48.174;9.782;2023-03-01T06:01:51;94719.91;;;-0.80;100.00
21658;BME280;10990;48.174;9.782;2023-03-01T06:04:18;94718.47;;;-0.84;100.00
21658;BME280;10990;48.174;9.782;2023-03-01T06:06:47;94711.50;;;-0.83;100.00
21658;BME280;10990;48.174;9.782;2023-03-01T06:09:14;94723.66;;;-0.84;100.00
21658;BME280;10990;48.174;9.782;2023-03-01T06:11:41;94727.81;;;-0.81;100.00
21658;BME280;10990;48.174;9.782;2023-03-01T06:14:07;94725.72;;;-0.76;100.00
21658;BME280;10990;48.174;9.782;2023-03-01T06:16:35;94724.25;;;-0.80;100.00
21658;BME280;10990;48.174;9.782;2023-03-01T06:19:02;94719.16;;;-0.82;100.00
21658;BME280;10990;48.174;9.782;2023-03-01T06:21:29;94722.91;;;-0.86;100.00
21658;BME280;10990;48.174;9.782;2023-03-01T06:23:57;94717.94;;;-0.89;100.00
21658;BME280;10990;48.174;9.782;2023-03-01T06:26:23;94723.94;;;-0.88;100.00
21658;BME280;10990;48.174;9.782;2023-03-01T06:28:50;94728.31;;;-0.89;100.00
21658;BME280;10990;48.174;9.782;2023-03-01T06:31:17;94732.78;;;-0.91;100.00
21658;BME280;10990;48.174;9.782;2023-03-01T06:33:43;94724.16;;;-0.92;100.00
21658;BME280;10990;48.174;9.782;2023-03-01T06:36:11;94726.97;;;-0.95;100.00
21658;BME280;10990;48.174;9.782;2023-03-01T06:38:37;94724.47;;;-0.96;100.00
21658;BME280;10990;48.174;9.782;2023-03-01T06:41:07;94723.63;;;-0.97;100.00
21658;BME280;10990;48.174;9.782;2023-03-01T06:43:34;94721.97;;;-0.98;100.00
21658;BME280;10990;48.174;9.782;2023-03-01T06:46:03;94722.28;;;-1.02;100.00
21658;BME280;10990;48.174;9.782;2023-03-01T06:48:30;94717.41;;;-0.94;100.00
21658;BME280;10990;48.174;9.782;2023-03-01T06:50:58;94711.47;;;-0.96;100.00
21658;BME280;10990;48.174;9.782;2023-03-01T06:53:26;94716.06;;;-1.00;100.00
21658;BME280;10990;48.174;9.782;2023-03-01T06:55:54;94720.94;;;-1.08;100.00
21658;BME280;10990;48.174;9.782;2023-03-01T06:58:22;94711.91;;;-1.02;100.00
21658;BME280;10990;48.174;9.782;2023-03-01T07:00:49;94726.44;;;-1.00;100.00
21658;BME280;10990;48.174;9.782;2023-03-01T07:03:15;94729.53;;;-1.07;100.00
21658;BME280;10990;48.174;9.782;2023-03-01T07:05:42;94722.72;;;-0.96;100.00
21658;BME280;10990;48.174;9.782;2023-03-01T07:08:10;94727.69;;;-1.05;100.00
21658;BME280;10990;48.174;9.782;2023-03-01T07:10:36;94733.16;;;-1.10;100.00
21658;BME280;10990;48.174;9.782;2023-03-01T07:13:03;94729.03;;;-1.00;100.00
21658;BME280;10990;48.174;9.782;2023-03-01T07:15:33;94729.25;;;-1.03;100.00
21658;BME280;10990;48.174;9.782;2023-03-01T07:18:00;94731.75;;;-1.01;100.00
21658;BME280;10990;48.174;9.782;2023-03-01T07:20:26;94738.38;;;-0.97;100.00
21658;BME280;10990;48.174;9.782;2023-03-01T07:22:54;94743.25;;;-1.05;100.00
21658;BME280;10990;48.174;9.782;2023-03-01T07:25:22;94747.72;;;-0.95;100.00
21658;BME280;10990;48.174;9.782;2023-03-01T07:27:50;94755.41;;;-1.06;100.00
21658;BME280;10990;48.174;9.782;2023-03-01T07:30:17;94768.97;;;-1.15;100.00
21658;BME280;10990;48.174;9.782;2023-03-01T07:32:46;94763.91;;;-1.04;100.00
21658;BME280;10990;48.174;9.782;2023-03-01T07:35:13;94768.78;;;-1.12;100.00
21658;BME280;10990;48.174;9.782;2023-03-01T07:37:40;94772.81;;;-1.08;100.00
21658;BME280;10990;48.174;9.782;2023-03-01T07:40:08;94774.78;;;-1.11;100.00
21658;BME280;10990;48.174;9.782;2023-03-01T07:42:35;94779.44;;;-1.17;100.00
21658;BME280;10990;48.174;9.782;2023-03-01T07:45:02;94780.59;;;-1.08;100.00
21658;BME280;10990;48.174;9.782;2023-03-01T07:47:29;94785.56;;;-1.18;100.00
21658;BME280;10990;48.174;9.782;2023-03-01T07:49:57;94776.03;;;-1.04;100.00
21658;BME280;10990;48.174;9.782;2023-03-01T07:52:24;94786.53;;;-1.06;100.00
21658;BME280;10990;48.174;9.782;2023-03-01T07:54:50;94792.78;;;-0.96;100.00
21658;BME280;10990;48.174;9.782;2023-03-01T07:57:17;94794.72;;;-0.99;100.00
21658;BME280;10990;48.174;9.782;2023-03-01T07:59:44;94792.97;;;-0.99;100.00
21658;BME280;10990;48.174;9.782;2023-03-01T08:02:11;94787.28;;;-0.91;100.00
21658;BME280;10990;48.174;9.782;2023-03-01T08:04:37;94796.31;;;-0.97;100.00
21658;BME280;10990;48.174;9.782;2023-03-01T08:07:05;94794.03;;;-0.88;100.00
21658;BME280;10990;48.174;9.782;2023-03-01T08:09:34;94801.41;;;-0.95;100.00
21658;BME280;10990;48.174;9.782;2023-03-01T08:12:01;94804.28;;;-1.00;100.00
21658;BME280;10990;48.174;9.782;2023-03-01T08:14:28;94808.25;;;-0.94;100.00
21658;BME280;10990;48.174;9.782;2023-03-01T08:16:55;94807.13;;;-0.90;100.00
21658;BME280;10990;48.174;9.782;2023-03-01T08:19:21;94810.97;;;-0.83;100.00
21658;BME280;10990;48.174;9.782;2023-03-01T08:21:48;94810.13;;;-0.83;100.00
21658;BME280;10990;48.174;9.782;2023-03-01T08:24:16;94812.63;;;-0.82;100.00
21658;BME280;10990;48.174;9.782;2023-03-01T08:26:43;94810.88;;;-0.69;100.00
21658;BME280;10990;48.174;9.782;2023-03-01T08:29:10;94820.03;;;-0.76;100.00
21658;BME280;10990;48.174;9.782;2023-03-01T08:31:38;94815.16;;;-0.68;100.00
21658;BME280;10990;48.174;9.782;2023-03-01T08:34:07;94822.72;;;-0.64;100.00
21658;BME280;10990;48.174;9.782;2023-03-01T08:36:37;94832.59;;;-0.70;100.00
21658;BME280;10990;48.174;9.782;2023-03-01T08:39:04;94833.22;;;-0.66;100.00
21658;BME280;10990;48.174;9.782;2023-03-01T08:41:33;94834.84;;;-0.78;100.00
21658;BME280;10990;48.174;9.782;2023-03-01T08:44:00;94845.31;;;-0.79;100.00
21658;BME280;10990;48.174;9.782;2023-03-01T08:46:27;94841.13;;;-0.68;100.00
21658;BME280;10990;48.174;9.782;2023-03-01T08:48:54;94847.84;;;-0.65;100.00
21658;BME280;10990;48.174;9.782;2023-03-01T08:51:22;94849.13;;;-0.58;100.00
21658;BME280;10990;48.174;9.782;2023-03-01T08:53:49;94850.69;;;-0.55;100.00
21658;BME280;10990;48.174;9.782;2023-03-01T08:56:16;94860.66;;;-0.62;100.00
21658;BME280;10990;48.174;9.782;2023-03-01T08:58:45;94872.16;;;-0.66;100.00
21658;BME280;10990;48.174;9.782;2023-03-01T09:01:14;94869.28;;;-0.61;100.00
21658;BME280;10990;48.174;9.782;2023-03-01T09:03:41;94863.66;;;-0.42;100.00
21658;BME280;10990;48.174;9.782;2023-03-01T09:06:11;94880.38;;;-0.59;100.00
21658;BME280;10990;48.174;9.782;2023-03-01T09:08:40;94887.13;;;-0.57;100.00
21658;BME280;10990;48.174;9.782;2023-03-01T09:11:09;94886.34;;;-0.44;100.00
21658;BME280;10990;48.174;9.782;2023-03-01T09:13:37;94895.69;;;-0.42;100.00
21658;BME280;10990;48.174;9.782;2023-03-01T09:16:07;94899.41;;;-0.46;100.00
21658;BME280;10990;48.174;9.782;2023-03-01T09:18:34;94909.91;;;-0.48;100.00
21658;BME280;10990;48.174;9.782;2023-03-01T09:21:02;94918.09;;;-0.54;100.00
21658;BME280;10990;48.174;9.782;2023-03-01T09:23:33;94915.94;;;-0.47;100.00
21658;BME280;10990;48.174;9.782;2023-03-01T09:26:01;94920.50;;;-0.38;100.00
21658;BME280;10990;48.174;9.782;2023-03-01T09:28:28;94921.88;;;-0.45;100.00
21658;BME280;10990;48.174;9.782;2023-03-01T09:30:57;94930.28;;;-0.41;100.00
21658;BME280;10990;48.174;9.782;2023-03-01T09:33:25;94933.50;;;-0.38;100.00
21658;BME280;10990;48.174;9.782;2023-03-01T09:35:56;94937.13;;;-0.40;100.00
21658;BME280;10990;48.174;9.782;2023-03-01T09:38:23;94936.22;;;-0.39;100.00
21658;BME280;10990;48.174;9.782;2023-03-01T09:40:50;94951.06;;;-0.41;100.00
21658;BME280;10990;48.174;9.782;2023-03-01T09:43:21;94941.63;;;-0.30;100.00
21658;BME280;10990;48.174;9.782;2023-03-01T09:45:50;94947.97;;;-0.34;100.00
21658;BME280;10990;48.174;9.782;2023-03-01T09:48:22;94955.75;;;-0.34;100.00
21658;BME280;10990;48.174;9.782;2023-03-01T09:50:52;94951.28;;;-0.32;100.00
21658;BME280;10990;48.174;9.782;2023-03-01T09:53:20;94956.19;;;-0.27;100.00
21658;BME280;10990;48.174;9.782;2023-03-01T09:55:52;94965.81;;;-0.42;100.00
21658;BME280;10990;48.174;9.782;2023-03-01T09:58:41;94957.22;;;-0.30;100.00
21658;BME280;10990;48.174;9.782;2023-03-01T10:01:25;94953.88;;;-0.32;100.00
21658;BME280;10990;48.174;9.782;2023-03-01T10:04:24;94940.28;;;-0.22;100.00
21658;BME280;10990;48.174;9.782;2023-03-01T10:07:05;94940.41;;;-0.11;100.00
21658;BME280;10990;48.174;9.782;2023-03-01T10:09:34;94942.69;;;-0.19;100.00
21658;BME280;10990;48.174;9.782;2023-03-01T10:12:07;94929.81;;;-0.08;100.00
21658;BME280;10990;48.174;9.782;2023-03-01T10:14:38;94940.50;;;-0.13;100.00
21658;BME280;10990;48.174;9.782;2023-03-01T10:17:12;94935.72;;;-0.06;100.00
21658;BME280;10990;48.174;9.782;2023-03-01T10:19:45;94939.16;;;-0.06;100.00
21658;BME280;10990;48.174;9.782;2023-03-01T10:22:16;94943.41;;;-0.05;100.00
21658;BME280;10990;48.174;9.782;2023-03-01T10:24:47;94945.81;;;-0.02;100.00
21658;BME280;10990;48.174;9.782;2023-03-01T10:27:19;94938.22;;;-0.05;100.00
21658;BME280;10990;48.174;9.782;2023-03-01T10:29:55;94938.94;;;0.10;100.00
21658;BME280;10990;48.174;9.782;2023-03-01T10:32:25;94952.06;;;0.09;100.00
21658;BME280;10990;48.174;9.782;2023-03-01T10:34:52;94944.66;;;0.28;100.00
21658;BME280;10990;48.174;9.782;2023-03-01T10:37:21;94965.56;;;0.14;100.00
21658;BME280;10990;48.174;9.782;2023-03-01T10:39:58;94977.84;;;-0.01;100.00
21658;BME280;10990;48.174;9.782;2023-03-01T10:42:27;94965.47;;;0.15;100.00
21658;BME280;10990;48.174;9.782;2023-03-01T10:44:55;94975.97;;;0.14;100.00
21658;BME280;10990;48.174;9.782;2023-03-01T10:47:23;94963.41;;;0.20;100.00
21658;BME280;10990;48.174;9.782;2023-03-01T10:49:59;94971.50;;;0.16;100.00
21658;BME280;10990;48.174;9.782;2023-03-01T10:52:31;94986.69;;;0.09;100.00
21658;BME280;10990;48.174;9.782;2023-03-01T10:55:00;94981.28;;;0.25;100.00
21658;BME280;10990;48.174;9.782;2023-03-01T10:57:34;94981.28;;;0.25;100.00
21658;BME280;10990;48.174;9.782;2023-03-01T11:00:20;94995.97;;;0.26;100.00
21658;BME280;10990;48.174;9.782;2023-03-01T11:02:49;94996.66;;;0.28;100.00
21658;BME280;10990;48.174;9.782;2023-03-01T11:05:20;94988.47;;;0.34;100.00
21658;BME280;10990;48.174;9.782;2023-03-01T11:07:51;94992.31;;;0.41;100.00
21658;BME280;10990;48.174;9.782;2023-03-01T11:10:21;94987.00;;;0.43;100.00
21658;BME280;10990;48.174;9.782;2023-03-01T11:12:48;94991.06;;;0.47;100.00
21658;BME280;10990;48.174;9.782;2023-03-01T11:15:25;94993.22;;;0.53;100.00
21658;BME280;10990;48.174;9.782;2023-03-01T11:17:52;94978.22;;;0.70;100.00
21658;BME280;10990;48.174;9.782;2023-03-01T11:20:25;94980.19;;;0.79;100.00
21658;BME280;10990;48.174;9.782;2023-03-01T11:22:54;94981.22;;;0.89;100.00
21658;BME280;10990;48.174;9.782;2023-03-01T11:25:25;95000.41;;;0.75;100.00
21658;BME280;10990;48.174;9.782;2023-03-01T11:27:53;95015.72;;;0.67;100.00
21658;BME280;10990;48.174;9.782;2023-03-01T11:30:23;95011.22;;;0.69;100.00
21658;BME280;10990;48.174;9.782;2023-03-01T11:33:01;95024.47;;;0.66;100.00
21658;BME280;10990;48.174;9.782;2023-03-01T11:35:29;95021.03;;;0.65;100.00
21658;BME280;10990;48.174;9.782;2023-03-01T11:38:09;95034.84;;;0.53;100.00
21658;BME280;10990;48.174;9.782;2023-03-01T11:40:42;95040.81;;;0.68;100.00
21658;BME280;10990;48.174;9.782;2023-03-01T11:43:16;95031.84;;;0.85;100.00
21658;BME280;10990;48.174;9.782;2023-03-01T11:45:58;95042.66;;;0.79;100.00
21658;BME280;10990;48.174;9.782;2023-03-01T11:48:45;95047.47;;;0.85;100.00
21658;BME280;10990;48.174;9.782;2023-03-01T11:51:20;95033.38;;;1.00;100.00
21658;BME280;10990;48.174;9.782;2023-03-01T11:54:06;95040.50;;;1.22;100.00
21658;BME280;10990;48.174;9.782;2023-03-01T11:56:39;95060.66;;;1.07;100.00
21658;BME280;10990;48.174;9.782;2023-03-01T11:59:26;95083.06;;;0.97;100.00
21658;BME280;10990;48.174;9.782;2023-03-01T12:02:15;95057.16;;;1.32;100.00
21658;BME280;10990;48.174;9.782;2023-03-01T12:05:03;95074.31;;;1.35;100.00
21658;BME280;10990;48.174;9.782;2023-03-01T12:07:46;95072.44;;;1.50;100.00
21658;BME280;10990;48.174;9.782;2023-03-01T12:10:23;95068.34;;;1.59;100.00
21658;BME280;10990;48.174;9.782;2023-03-01T12:13:02;95090.38;;;1.42;100.00
21658;BME280;10990;48.174;9.782;2023-03-01T12:15:49;95080.84;;;1.66;100.00
21658;BME280;10990;48.174;9.782;2023-03-01T12:21:34;95107.38;;;1.71;100.00
21658;BME280;10990;48.174;9.782;2023-03-01T12:24:16;95105.91;;;2.04;100.00
21658;BME280;10990;48.174;9.782;2023-03-01T12:27:05;95109.94;;;2.32;100.00
21658;BME280;10990;48.174;9.782;2023-03-01T12:29:37;95128.47;;;2.40;100.00
21658;BME280;10990;48.174;9.782;2023-03-01T12:32:21;95140.91;;;2.37;100.00
21658;BME280;10990;48.174;9.782;2023-03-01T12:35:02;95163.06;;;2.31;100.00
21658;BME280;10990;48.174;9.782;2023-03-01T12:37:42;95164.09;;;2.53;100.00
21658;BME280;10990;48.174;9.782;2023-03-01T12:43:10;95179.13;;;2.73;100.00
21658;BME280;10990;48.174;9.782;2023-03-01T12:45:52;95186.28;;;2.82;100.00
21658;BME280;10990;48.174;9.782;2023-03-01T12:48:39;95220.88;;;2.62;100.00
21658;BME280;10990;48.174;9.782;2023-03-01T12:51:09;95209.44;;;2.52;100.00
21658;BME280;10990;48.174;9.782;2023-03-01T12:53:40;95199.13;;;2.61;100.00
21658;BME280;10990;48.174;9.782;2023-03-01T12:56:10;95224.88;;;2.55;100.00
21658;BME280;10990;48.174;9.782;2023-03-01T12:58:46;95226.53;;;2.56;100.00
21658;BME280;10990;48.174;9.782;2023-03-01T13:01:22;95235.63;;;2.26;100.00
21658;BME280;10990;48.174;9.782;2023-03-01T13:04:03;95219.13;;;2.50;100.00
21658;BME280;10990;48.174;9.782;2023-03-01T13:06:34;95214.31;;;2.56;100.00
21658;BME280;10990;48.174;9.782;2023-03-01T13:09:14;95220.47;;;2.55;100.00
21658;BME280;10990;48.174;9.782;2023-03-01T13:11:43;95237.84;;;2.43;100.00
21658;BME280;10990;48.174;9.782;2023-03-01T13:14:37;95250.47;;;2.50;100.00